<?xml version="1.0" encoding="utf-8"?>
<gpx xmlns:xsi="http://www.w3.org/2001/XMLSchema-instance" xmlns:xsd="http://www.w3.org/2001/XMLSchema" version="1.1" creator="Shapelink.com" xmlns="http://www.topografix.com/GPX/1/1" xmlns:gpxtpx="http://www.garmin.com/xmlschemas/TrackPointExtension/v1">
  <metadata>
    <name>Natación 1.68 km, 2015-06-23</name>
    <desc></desc>
    <author><name>Henrik Amren</name></author> 
    <time>2015-06-23T06:55:54Z</time>
  </metadata>
  <trk>
    <name>Natación 1.68 km, 2015-06-23</name>
    <trkseg>
      <trkpt lat="39.836157239312" lon="3.125678068114">
        <ele>0</ele>
        <time>2015-06-23T06:55:54Z</time>
      </trkpt>
      <trkpt lat="39.836576585769" lon="3.125823996993">
        <ele>0</ele>
        <time>2015-06-23T06:56:29Z</time>
      </trkpt>
      <trkpt lat="39.836814296453" lon="3.126054163967">
        <ele>0</ele>
        <time>2015-06-23T06:57:07Z</time>
      </trkpt>
      <trkpt lat="39.837316456082" lon="3.126486250912">
        <ele>0</ele>
        <time>2015-06-23T06:58:02Z</time>
      </trkpt>
      <trkpt lat="39.837572439308" lon="3.127073905921">
        <ele>0</ele>
        <time>2015-06-23T06:59:22Z</time>
      </trkpt>
      <trkpt lat="39.838061355535" lon="3.127488307057">
        <ele>0</ele>
        <time>2015-06-23T07:00:49Z</time>
      </trkpt>
      <trkpt lat="39.838325888299" lon="3.128233038872">
        <ele>0</ele>
        <time>2015-06-23T07:02:38Z</time>
      </trkpt>
      <trkpt lat="39.838750180077" lon="3.128567057587">
        <ele>0</ele>
        <time>2015-06-23T07:03:24Z</time>
      </trkpt>
      <trkpt lat="39.838850259963" lon="3.128818179311">
        <ele>0</ele>
        <time>2015-06-23T07:03:43Z</time>
      </trkpt>
      <trkpt lat="39.839462306301" lon="3.129181953771">
        <ele>0</ele>
        <time>2015-06-23T07:04:18Z</time>
      </trkpt>
      <trkpt lat="39.839692221818" lon="3.129566012429">
        <ele>0</ele>
        <time>2015-06-23T07:05:50Z</time>
      </trkpt>
      <trkpt lat="39.839695826035" lon="3.130164480089">
        <ele>0</ele>
        <time>2015-06-23T07:07:07Z</time>
      </trkpt>
      <trkpt lat="39.839598093081" lon="3.130700167318">
        <ele>0</ele>
        <time>2015-06-23T07:08:01Z</time>
      </trkpt>
      <trkpt lat="39.840103186375" lon="3.131409778972">
        <ele>0</ele>
        <time>2015-06-23T07:09:20Z</time>
      </trkpt>
      <trkpt lat="39.840264118855" lon="3.131103671984">
        <ele>0</ele>
        <time>2015-06-23T07:09:51Z</time>
      </trkpt>
      <trkpt lat="39.840185915728" lon="3.13014092695">
        <ele>0</ele>
        <time>2015-06-23T07:11:22Z</time>
      </trkpt>
      <trkpt lat="39.840026659628" lon="3.129768854409">
        <ele>0</ele>
        <time>2015-06-23T07:12:10Z</time>
      </trkpt>
      <trkpt lat="39.839581832195" lon="3.129035605797">
        <ele>0</ele>
        <time>2015-06-23T07:12:56Z</time>
      </trkpt>
      <trkpt lat="39.839598763633" lon="3.128828069953">
        <ele>0</ele>
        <time>2015-06-23T07:13:49Z</time>
      </trkpt>
      <trkpt lat="39.839271115162" lon="3.12822063366">
        <ele>0</ele>
        <time>2015-06-23T07:14:46Z</time>
      </trkpt>
      <trkpt lat="39.839016556859" lon="3.127763149558">
        <ele>0</ele>
        <time>2015-06-23T07:15:54Z</time>
      </trkpt>
      <trkpt lat="39.838669797656" lon="3.127710678864">
        <ele>0</ele>
        <time>2015-06-23T07:16:35Z</time>
      </trkpt>
      <trkpt lat="39.838299988228" lon="3.127236850057">
        <ele>0</ele>
        <time>2015-06-23T07:18:00Z</time>
      </trkpt>
      <trkpt lat="39.838011064135" lon="3.126667886685">
        <ele>0</ele>
        <time>2015-06-23T07:19:01Z</time>
      </trkpt>
      <trkpt lat="39.837721553309" lon="3.126094229449">
        <ele>0</ele>
        <time>2015-06-23T07:20:07Z</time>
      </trkpt>
      <trkpt lat="39.837277312609" lon="3.12588627451">
        <ele>0</ele>
        <time>2015-06-23T07:20:57Z</time>
      </trkpt>
      <trkpt lat="39.836695608749" lon="3.125543622438">
        <ele>0</ele>
        <time>2015-06-23T07:22:32Z</time>
      </trkpt>
      <trkpt lat="39.836339210361" lon="3.124848092376">
        <ele>0</ele>
        <time>2015-06-23T07:23:56Z</time>
      </trkpt>
      <trkpt lat="39.83582716009" lon="3.124572160228">
        <ele>0</ele>
        <time>2015-06-23T07:24:46Z</time>
      </trkpt>
      <trkpt lat="39.835701766866" lon="3.124425393159">
        <ele>0</ele>
        <time>2015-06-23T07:25:18Z</time>
      </trkpt>
    </trkseg>
  </trk>
</gpx>